LFRG/DOL METAR and TAF weather

Enter ICAO airport designator
Station Type Date Time Source
LFRG METAR 2021/09/23 22:30 UTC NOAA

LFRG 232230Z AUTO 23005KT 9999 OVC011 15/14 Q1021


Station Type Date Time Source
LFRG Decoded METAR 2021/09/23 22:30 UTC NOAA

Station name not available
Sep 23, 2021 - 06:30 PM EDT / 2021.09.23 2230 UTC
Wind: from the SW (230 degrees) at 6 MPH (5 KT):0
Visibility: greater than 7 mile(s):0
Sky conditions: overcast
Temperature: 59 F (15 C)
Dew Point: 57 F (14 C)
Relative Humidity: 93%
Pressure (altimeter): 30.15 in. Hg (1021 hPa)
ob: LFRG 232230Z AUTO 23005KT 9999 OVC011 15/14 Q1021
cycle: 22

Station Type Date Time Source
LFRG TAF 2014/12/22 18:42 UTC NOAA

TAF
AMD TAF
AMD LFRG 221837Z 2218/2221 25015KT 9999 OVC015
TEMPO 2218/2221 BKN007 PROB30
TEMPO 2218/2221 25015G25KT 4000 DZ BKN003

Example: see airport list